createdAt,value
2019-05-26T00:00:34.853Z,4.77
2019-05-26T00:02:10.072Z,4.40
2019-05-26T00:03:44.722Z,4.40
2019-05-26T00:05:31.997Z,4.33
2019-05-26T00:07:07.434Z,4.03
2019-05-26T00:08:42.191Z,4.20
2019-05-26T00:10:17.752Z,3.90
2019-05-26T00:11:52.407Z,4.03
2019-05-26T00:13:31.858Z,4.00
2019-05-26T00:15:07.123Z,4.00
2019-05-26T00:16:43.942Z,4.03
2019-05-26T00:18:18.580Z,3.57
2019-05-26T00:19:53.796Z,3.20
2019-05-26T00:21:31.295Z,3.63
2019-05-26T00:23:06.618Z,3.50
2019-05-26T00:24:48.085Z,4.40
2019-05-26T00:26:28.336Z,3.83
2019-05-26T00:28:03.575Z,3.60
2019-05-26T00:29:38.237Z,3.40
2019-05-26T00:31:21.534Z,3.53
2019-05-26T00:32:56.776Z,3.20
2019-05-26T00:34:32.010Z,3.40
2019-05-26T00:36:06.657Z,3.33
2019-05-26T00:37:50.374Z,3.40
2019-05-26T00:39:29.810Z,3.60
2019-05-26T00:41:10.750Z,2.80
2019-05-26T00:42:45.458Z,3.50
2019-05-26T00:44:20.776Z,3.07
2019-05-26T00:46:00.410Z,3.07
2019-05-26T00:47:37.312Z,3.10
2019-05-26T00:49:12.018Z,3.00
2019-05-26T00:50:47.356Z,2.90
2019-05-26T00:52:22.051Z,3.27
2019-05-26T00:53:57.332Z,3.20
2019-05-26T00:55:32.051Z,2.47
2019-05-26T00:57:14.053Z,3.30
2019-05-26T00:58:48.696Z,2.93
2019-05-26T01:00:45.563Z,3.07
2019-05-26T01:02:20.397Z,3.10
2019-05-26T01:03:55.655Z,2.80
2019-05-26T01:05:30.305Z,3.33
2019-05-26T01:07:05.593Z,3.07
2019-05-26T01:08:40.337Z,2.67
2019-05-26T01:10:15.717Z,3.23
2019-05-26T01:12:02.569Z,2.87
2019-05-26T01:13:37.810Z,3.40
2019-05-26T01:15:12.567Z,2.63
2019-05-26T01:16:47.862Z,2.77
2019-05-26T01:18:22.512Z,2.60
2019-05-26T01:20:02.651Z,2.90
2019-05-26T01:21:37.294Z,3.47
2019-05-26T01:23:12.526Z,2.93
2019-05-26T01:24:47.169Z,3.10
2019-05-26T01:26:22.484Z,3.27
2019-05-26T01:27:57.110Z,3.27
2019-05-26T01:29:35.408Z,3.03
2019-05-26T01:31:21.950Z,3.20
2019-05-26T01:32:57.296Z,3.40
2019-05-26T01:34:33.641Z,3.33
2019-05-26T01:36:11.952Z,3.80
2019-05-26T01:37:46.867Z,3.50
2019-05-26T01:39:22.164Z,3.00
2019-05-26T01:40:56.820Z,3.20
2019-05-26T01:42:32.034Z,3.60
2019-05-26T01:44:06.723Z,3.27
2019-05-26T01:45:42.921Z,3.57
2019-05-26T01:47:17.552Z,3.20
2019-05-26T01:48:52.762Z,3.03
2019-05-26T01:50:27.415Z,3.43
2019-05-26T01:52:04.343Z,3.30
2019-05-26T01:53:39.013Z,3.40
2019-05-26T01:55:14.388Z,3.20
2019-05-26T01:56:49.055Z,3.43
2019-05-26T01:58:34.561Z,3.00
2019-05-26T02:00:10.128Z,2.97
2019-05-26T02:01:51.507Z,3.20
2019-05-26T02:03:26.736Z,3.20
2019-05-26T02:05:01.399Z,2.80
2019-05-26T02:06:36.708Z,3.07
2019-05-26T02:08:14.482Z,2.80
2019-05-26T02:09:49.693Z,3.57
2019-05-26T02:11:24.317Z,2.80
2019-05-26T02:12:59.719Z,2.80
2019-05-26T02:14:34.513Z,3.20
2019-05-26T02:16:09.924Z,3.10
2019-05-26T02:17:44.755Z,3.10
2019-05-26T02:19:20.286Z,3.10
2019-05-26T02:20:54.909Z,2.93
2019-05-26T02:22:30.162Z,3.30
2019-05-26T02:24:04.990Z,2.90
2019-05-26T02:25:40.286Z,3.10
2019-05-26T02:27:17.743Z,2.43
2019-05-26T02:28:52.991Z,3.43
2019-05-26T02:30:27.760Z,3.03
2019-05-26T02:32:03.076Z,2.80
2019-05-26T02:33:45.267Z,2.70
2019-05-26T02:35:21.524Z,3.00
2019-05-26T02:36:56.156Z,2.90
2019-05-26T02:38:31.466Z,3.30
2019-05-26T02:40:07.869Z,3.10
2019-05-26T02:41:43.096Z,3.10
2019-05-26T02:43:17.780Z,3.10
2019-05-26T02:44:53.011Z,3.23
2019-05-26T02:46:27.645Z,3.30
2019-05-26T02:48:02.860Z,3.30
2019-05-26T02:49:37.843Z,3.13
2019-05-26T02:51:15.021Z,3.13
2019-05-26T02:52:54.444Z,3.50
2019-05-26T02:54:29.676Z,3.17
2019-05-26T02:56:04.524Z,3.13
2019-05-26T02:57:39.758Z,3.20
2019-05-26T02:59:14.383Z,3.13
2019-05-26T03:00:49.742Z,3.20
2019-05-26T03:02:24.815Z,3.60
2019-05-26T03:04:00.099Z,3.20
2019-05-26T03:05:34.823Z,3.20
2019-05-26T03:07:10.829Z,3.63
2019-05-26T03:08:46.395Z,3.33
2019-05-26T03:10:21.688Z,3.23
2019-05-26T03:11:57.413Z,3.20
2019-05-26T03:13:35.461Z,3.07
2019-05-26T03:15:18.106Z,3.17
2019-05-26T03:16:53.594Z,2.93
2019-05-26T03:18:37.014Z,3.30
2019-05-26T03:20:14.634Z,3.03
2019-05-26T03:21:49.744Z,3.10
2019-05-26T03:23:25.848Z,2.90
2019-05-26T03:25:01.650Z,3.23
2019-05-26T03:26:36.991Z,3.40
2019-05-26T03:28:13.550Z,3.20
2019-05-26T03:29:48.751Z,3.23
2019-05-26T03:31:26.356Z,3.13
2019-05-26T03:33:01.599Z,2.80
2019-05-26T03:34:39.333Z,2.97
2019-05-26T03:36:14.550Z,3.00
2019-05-26T03:37:49.212Z,3.17
2019-05-26T03:39:42.600Z,2.93
2019-05-26T03:41:00.762Z,2.97
2019-05-26T03:42:36.089Z,3.23
2019-05-26T03:44:11.670Z,2.93
2019-05-26T03:46:18.315Z,3.03
2019-05-26T03:47:59.116Z,3.10
2019-05-26T03:49:35.434Z,3.10
2019-05-26T03:51:10.659Z,3.37
2019-05-26T03:52:45.382Z,3.47
2019-05-26T03:54:32.029Z,3.00
2019-05-26T03:56:07.308Z,2.80
2019-05-26T03:57:41.949Z,3.03
2019-05-26T03:59:18.272Z,3.10
2019-05-26T04:00:52.939Z,3.03
2019-05-26T04:02:28.222Z,3.13
2019-05-26T04:04:06.134Z,3.43
2019-05-26T04:05:41.376Z,3.40
2019-05-26T04:07:16.043Z,3.13
2019-05-26T04:08:51.296Z,3.50
2019-05-26T04:10:30.306Z,3.27
2019-05-26T04:12:05.793Z,3.33
2019-05-26T04:13:48.992Z,3.37
2019-05-26T04:15:24.235Z,2.97
2019-05-26T04:16:59.829Z,3.50
2019-05-26T04:18:35.146Z,2.87
2019-05-26T04:20:11.657Z,3.30
2019-05-26T04:21:46.939Z,3.63
2019-05-26T04:23:21.599Z,3.20
2019-05-26T04:24:56.894Z,3.37
2019-05-26T04:26:36.425Z,3.40
2019-05-26T04:28:11.666Z,3.03
2019-05-26T04:29:48.571Z,3.30
2019-05-26T04:31:23.790Z,3.20
2019-05-26T04:32:58.689Z,3.33
2019-05-26T04:34:33.916Z,3.57
2019-05-26T04:36:11.420Z,3.20
2019-05-26T04:37:46.677Z,3.60
2019-05-26T04:39:21.306Z,3.53
2019-05-26T04:40:56.570Z,3.90
2019-05-26T04:42:34.737Z,3.80
2019-05-26T04:44:09.959Z,3.43
2019-05-26T04:45:44.700Z,3.37
2019-05-26T04:47:19.971Z,3.13
2019-05-26T04:48:57.830Z,4.10
2019-05-26T04:50:33.147Z,3.57
2019-05-26T04:52:16.491Z,3.73
2019-05-26T04:54:00.784Z,3.47
2019-05-26T04:55:35.513Z,3.57
2019-05-26T04:57:21.899Z,3.57
2019-05-26T04:58:56.592Z,3.80
2019-05-26T05:00:31.936Z,3.47
2019-05-26T05:02:06.613Z,3.43
2019-05-26T05:03:45.005Z,3.50
2019-05-26T05:05:19.759Z,2.73
2019-05-26T05:06:54.992Z,4.00
2019-05-26T05:08:29.636Z,3.27
2019-05-26T05:10:05.864Z,3.60
2019-05-26T05:11:40.562Z,3.53
2019-05-26T05:13:20.427Z,3.27
2019-05-26T05:14:55.176Z,3.50
2019-05-26T05:16:30.560Z,3.67
2019-05-26T05:18:05.402Z,3.80
2019-05-26T05:19:40.658Z,3.83
2019-05-26T05:21:15.428Z,3.77
2019-05-26T05:22:53.201Z,3.77
2019-05-26T05:24:28.038Z,3.17
2019-05-26T05:26:03.328Z,3.33
2019-05-26T05:27:38.117Z,3.20
2019-05-26T05:29:13.417Z,3.50
2019-05-26T05:30:48.210Z,3.90
2019-05-26T05:32:23.435Z,3.70
2019-05-26T05:33:58.111Z,3.23
2019-05-26T05:35:33.473Z,3.50
2019-05-26T05:37:17.282Z,3.33
2019-05-26T05:38:59.660Z,3.53
2019-05-26T05:40:34.379Z,3.50
2019-05-26T05:42:09.628Z,3.77
2019-05-26T05:43:50.344Z,3.40
2019-05-26T05:45:25.583Z,3.40
2019-05-26T05:47:00.290Z,3.73
2019-05-26T05:48:35.535Z,3.30
2019-05-26T05:50:19.852Z,3.90
2019-05-26T05:51:55.148Z,3.30
2019-05-26T05:53:29.790Z,3.70
2019-05-26T05:55:05.205Z,3.43
2019-05-26T05:56:55.452Z,3.80
2019-05-26T05:58:17.296Z,3.47
2019-05-26T05:59:51.940Z,3.40
2019-05-26T06:01:34.527Z,3.50
2019-05-26T06:03:18.301Z,3.50
2019-05-26T06:04:52.463Z,3.37
2019-05-26T06:06:27.698Z,2.90
2019-05-26T06:08:02.522Z,3.60
2019-05-26T06:09:37.760Z,3.43
2019-05-26T06:11:17.284Z,3.37
2019-05-26T06:12:52.497Z,3.50
2019-05-26T06:14:31.888Z,3.40
2019-05-26T06:16:07.131Z,3.43
2019-05-26T06:17:41.842Z,3.17
2019-05-26T06:19:17.196Z,3.60
2019-05-26T06:20:52.014Z,3.53
2019-05-26T06:22:30.033Z,3.63
2019-05-26T06:24:04.896Z,3.50
2019-05-26T06:25:43.056Z,3.67
2019-05-26T06:27:17.718Z,3.47
2019-05-26T06:28:56.090Z,3.90
2019-05-26T06:30:31.656Z,3.50
2019-05-26T06:32:08.086Z,3.80
2019-05-26T06:33:44.560Z,3.57
2019-05-26T06:35:19.786Z,4.10
2019-05-26T06:36:54.647Z,3.87
2019-05-26T06:38:29.909Z,4.27
2019-05-26T06:40:20.585Z,3.83
2019-05-26T06:41:55.844Z,3.77
2019-05-26T06:43:33.316Z,3.90
2019-05-26T06:45:09.007Z,4.30
2019-05-26T06:46:53.356Z,3.90
2019-05-26T06:48:28.650Z,4.37
2019-05-26T06:50:03.357Z,3.80
2019-05-26T06:51:38.619Z,4.77
2019-05-26T06:53:19.814Z,4.30
2019-05-26T06:54:54.994Z,3.80
2019-05-26T06:56:30.338Z,3.57
2019-05-26T06:58:05.379Z,4.30
2019-05-26T06:59:42.691Z,4.57
2019-05-26T07:01:21.534Z,4.20
2019-05-26T07:02:56.984Z,4.87
2019-05-26T07:04:35.406Z,4.90
2019-05-26T07:06:10.679Z,4.87
2019-05-26T07:07:51.803Z,4.70
2019-05-26T07:09:27.254Z,4.53
2019-05-26T07:11:09.549Z,5.20
2019-05-26T07:12:45.993Z,5.30
2019-05-26T07:14:20.665Z,5.00
2019-05-26T07:15:56.989Z,5.20
2019-05-26T07:17:31.639Z,5.33
2019-05-26T07:19:06.953Z,6.00
2019-05-26T07:20:41.829Z,5.57
2019-05-26T07:22:17.123Z,5.50
2019-05-26T07:23:56.155Z,5.33
2019-05-26T07:25:31.404Z,5.37
2019-05-26T07:27:07.293Z,5.33
2019-05-26T07:28:42.629Z,5.03
2019-05-26T07:30:23.436Z,5.23
2019-05-26T07:31:57.439Z,6.07
2019-05-26T07:33:32.094Z,5.77
2019-05-26T07:35:07.933Z,6.00
2019-05-26T07:36:42.644Z,6.30
2019-05-26T07:38:17.917Z,5.43
2019-05-26T07:39:52.565Z,6.13
2019-05-26T07:41:33.923Z,5.80
2019-05-26T07:43:09.568Z,5.80
2019-05-26T07:44:46.544Z,6.03
2019-05-26T07:46:21.105Z,5.93
2019-05-26T07:47:56.371Z,5.73
2019-05-26T07:49:31.031Z,6.93
2019-05-26T07:51:06.376Z,6.77
2019-05-26T07:52:41.002Z,7.07
2019-05-26T07:54:25.260Z,8.27
2019-05-26T07:55:52.568Z,7.43
2019-05-26T07:57:27.832Z,7.90
2019-05-26T07:59:11.141Z,9.00
2019-05-26T08:00:46.425Z,7.87
2019-05-26T08:02:21.146Z,9.43
2019-05-26T08:03:56.390Z,7.77
2019-05-26T08:05:31.035Z,8.03
2019-05-26T08:07:06.376Z,8.47
2019-05-26T08:08:43.195Z,7.97
2019-05-26T08:10:18.797Z,7.70
2019-05-26T08:11:53.461Z,7.23
2019-05-26T08:13:29.114Z,8.77
2019-05-26T08:15:03.841Z,7.33
2019-05-26T08:16:39.097Z,7.47
2019-05-26T08:18:13.846Z,7.40
2019-05-26T08:19:49.082Z,6.93
2019-05-26T08:21:23.753Z,6.93
2019-05-26T08:23:00.277Z,7.23
2019-05-26T08:24:34.904Z,6.97
2019-05-26T08:26:10.302Z,6.53
2019-05-26T08:27:44.967Z,5.90
2019-05-26T08:29:20.180Z,5.63
2019-05-26T08:30:54.826Z,5.10
2019-05-26T08:32:30.179Z,5.07
2019-05-26T08:34:05.005Z,4.90
2019-05-26T08:35:48.270Z,4.67
2019-05-26T08:37:22.980Z,4.47
2019-05-26T08:38:58.287Z,4.40
2019-05-26T08:40:34.092Z,4.50
2019-05-26T08:42:09.321Z,3.83
2019-05-26T08:43:47.122Z,3.50
2019-05-26T08:45:23.723Z,4.07
2019-05-26T08:47:01.508Z,3.00
2019-05-26T08:48:36.770Z,3.70
2019-05-26T08:50:18.652Z,3.90
2019-05-26T08:51:54.000Z,3.40
2019-05-26T08:53:31.510Z,3.73
2019-05-26T08:55:07.061Z,3.17
2019-05-26T08:56:41.746Z,3.40
2019-05-26T08:58:16.987Z,3.77
2019-05-26T08:59:51.779Z,3.60
2019-05-26T09:01:28.674Z,3.90
2019-05-26T09:03:03.569Z,2.53
2019-05-26T09:04:38.988Z,3.07
2019-05-26T09:06:13.730Z,2.90
2019-05-26T09:07:48.940Z,2.17
2019-05-26T09:09:23.586Z,3.27
2019-05-26T09:10:58.833Z,3.20
2019-05-26T09:12:43.360Z,3.07
2019-05-26T09:14:18.863Z,2.77
2019-05-26T09:16:00.793Z,2.83
2019-05-26T09:17:36.079Z,2.93
2019-05-26T09:19:10.730Z,2.80
2019-05-26T09:20:45.978Z,3.00
2019-05-26T09:22:22.707Z,2.80
2019-05-26T09:23:57.962Z,2.90
2019-05-26T09:25:32.762Z,3.17
2019-05-26T09:27:08.076Z,3.43
2019-05-26T09:28:45.953Z,3.47
2019-05-26T09:30:21.453Z,3.93
2019-05-26T09:31:56.109Z,3.03
2019-05-26T09:33:31.346Z,3.80
2019-05-26T09:35:06.490Z,4.00
2019-05-26T09:36:41.838Z,3.67
2019-05-26T09:38:16.479Z,3.50
2019-05-26T09:39:51.723Z,3.93
2019-05-26T09:41:26.411Z,3.90
2019-05-26T09:43:15.001Z,3.50
2019-05-26T09:44:38.105Z,4.43
2019-05-26T09:46:13.337Z,3.90
2019-05-26T09:47:57.706Z,3.60
2019-05-26T09:49:32.972Z,3.53
2019-05-26T09:51:07.860Z,3.30
2019-05-26T09:52:43.184Z,4.03
2019-05-26T09:54:17.864Z,3.70
2019-05-26T09:55:53.102Z,4.10
2019-05-26T09:57:27.746Z,3.87
2019-05-26T09:59:04.137Z,3.77
2019-05-26T10:00:38.784Z,4.33
2019-05-26T10:02:14.016Z,4.33
2019-05-26T10:03:48.746Z,4.33
2019-05-26T10:05:24.087Z,4.43
2019-05-26T10:06:58.730Z,4.17
2019-05-26T10:08:33.954Z,4.27
2019-05-26T10:10:09.213Z,3.57
2019-05-26T10:11:44.445Z,4.10
2019-05-26T10:13:31.427Z,3.97
2019-05-26T10:15:01.040Z,3.83
2019-05-26T10:16:36.043Z,3.90
2019-05-26T10:18:11.258Z,4.73
2019-05-26T10:19:45.983Z,4.47
2019-05-26T10:21:21.286Z,4.40
2019-05-26T10:22:56.422Z,4.20
2019-05-26T10:24:31.754Z,4.33
2019-05-26T10:26:06.424Z,4.83
2019-05-26T10:27:41.869Z,5.10
2019-05-26T10:29:16.711Z,4.20
2019-05-26T10:30:57.195Z,4.27
2019-05-26T10:32:32.510Z,5.30
2019-05-26T10:34:07.327Z,5.70
2019-05-26T10:35:46.529Z,5.20
2019-05-26T10:37:21.259Z,5.17
2019-05-26T10:38:58.966Z,4.77
2019-05-26T10:40:33.643Z,5.10
2019-05-26T10:42:08.929Z,5.10
2019-05-26T10:43:47.132Z,4.43
2019-05-26T10:45:20.961Z,5.40
2019-05-26T10:46:55.831Z,4.30
2019-05-26T10:48:31.117Z,4.80
2019-05-26T10:50:07.477Z,5.50
2019-05-26T10:51:42.710Z,5.80
2019-05-26T10:53:23.460Z,4.70
2019-05-26T10:54:58.704Z,5.33
2019-05-26T10:56:33.433Z,5.90
2019-05-26T10:58:08.680Z,5.43
2019-05-26T10:59:43.658Z,5.70
2019-05-26T11:01:18.964Z,5.10
2019-05-26T11:02:54.677Z,5.00
2019-05-26T11:04:29.906Z,4.53
2019-05-26T11:06:05.759Z,4.60
2019-05-26T11:07:44.731Z,5.03
2019-05-26T11:09:19.449Z,4.23
2019-05-26T11:10:54.695Z,4.57
2019-05-26T11:12:29.373Z,4.27
2019-05-26T11:14:06.109Z,4.70
2019-05-26T11:15:50.572Z,4.90
2019-05-26T11:17:31.228Z,7.90
2019-05-26T11:19:06.020Z,5.10
2019-05-26T11:20:41.385Z,6.27
2019-05-26T11:22:16.685Z,5.03
2019-05-26T11:23:51.940Z,5.07
2019-05-26T11:25:36.478Z,4.83
2019-05-26T11:27:13.315Z,4.53
2019-05-26T11:28:48.171Z,4.87
2019-05-26T11:30:23.736Z,3.80
2019-05-26T11:31:58.382Z,3.40
2019-05-26T11:33:38.306Z,3.40
2019-05-26T11:35:13.955Z,5.20
2019-05-26T11:36:49.781Z,3.07
2019-05-26T11:38:24.497Z,2.90
2019-05-26T11:39:59.761Z,3.43
2019-05-26T11:41:34.433Z,3.23
2019-05-26T11:43:16.922Z,4.23
2019-05-26T11:44:48.813Z,3.50
2019-05-26T11:46:24.001Z,3.30
2019-05-26T11:47:58.798Z,2.87
2019-05-26T11:49:34.066Z,3.07
2019-05-26T11:51:08.715Z,3.17
2019-05-26T11:52:44.009Z,3.20
2019-05-26T11:54:18.957Z,2.80
2019-05-26T11:55:54.395Z,2.77
2019-05-26T11:57:29.065Z,3.57
2019-05-26T11:59:07.276Z,3.73
2019-05-26T12:00:42.796Z,3.57
2019-05-26T12:02:18.011Z,3.60
2019-05-26T12:03:53.713Z,2.93
2019-05-26T12:05:30.575Z,3.30
2019-05-26T12:07:05.556Z,3.00
2019-05-26T12:08:40.811Z,2.57
2019-05-26T12:10:16.873Z,2.77
2019-05-26T12:11:52.136Z,3.07
2019-05-26T12:13:27.752Z,2.70
2019-05-26T12:15:03.019Z,3.30
2019-05-26T12:16:39.269Z,2.73
2019-05-26T12:18:20.196Z,3.30
2019-05-26T12:19:55.601Z,2.87
2019-05-26T12:21:30.264Z,3.20
2019-05-26T12:23:05.587Z,3.00
2019-05-26T12:24:40.983Z,2.90
2019-05-26T12:26:19.589Z,3.27
2019-05-26T12:27:54.360Z,4.10
2019-05-26T12:29:29.757Z,3.10
2019-05-26T12:31:11.482Z,3.63
2019-05-26T12:32:46.842Z,3.70
2019-05-26T12:34:21.566Z,3.23
2019-05-26T12:35:56.796Z,2.87
2019-05-26T12:37:31.564Z,3.20
2019-05-26T12:39:10.716Z,2.70
2019-05-26T12:40:45.437Z,2.67
2019-05-26T12:42:20.942Z,3.20
2019-05-26T12:43:55.601Z,2.90
2019-05-26T12:45:45.653Z,2.43
2019-05-26T12:47:20.993Z,2.47
2019-05-26T12:49:00.270Z,2.50
2019-05-26T12:50:35.557Z,2.47
2019-05-26T12:52:13.252Z,3.07
2019-05-26T12:53:53.418Z,2.80
2019-05-26T12:55:28.108Z,2.50
2019-05-26T12:57:03.352Z,2.80
2019-05-26T12:58:38.013Z,2.40
2019-05-26T13:00:15.135Z,2.87
2019-05-26T13:01:57.532Z,2.70
2019-05-26T13:03:32.790Z,2.70
2019-05-26T13:05:07.800Z,2.70
2019-05-26T13:06:43.049Z,2.30
2019-05-26T13:08:17.703Z,2.63
2019-05-26T13:09:59.525Z,2.83
2019-05-26T13:11:34.777Z,2.90
2019-05-26T13:13:09.442Z,2.40
2019-05-26T13:15:04.742Z,2.50
2019-05-26T13:16:21.021Z,2.80
2019-05-26T13:17:59.053Z,2.30
2019-05-26T13:19:34.863Z,2.30
2019-05-26T13:21:11.749Z,2.03
2019-05-26T13:22:47.483Z,2.17
2019-05-26T13:24:22.748Z,2.60
2019-05-26T13:25:57.375Z,2.43
2019-05-26T13:27:33.752Z,2.23
2019-05-26T13:29:08.469Z,2.37
2019-05-26T13:30:43.687Z,2.53
2019-05-26T13:32:18.654Z,2.50
2019-05-26T13:33:53.963Z,2.90
2019-05-26T13:35:29.017Z,2.50
2019-05-26T13:37:04.591Z,2.80
2019-05-26T13:38:48.668Z,2.00
2019-05-26T13:40:24.221Z,2.70
2019-05-26T13:41:59.206Z,1.97
2019-05-26T13:43:36.574Z,2.43
2019-05-26T13:45:22.373Z,2.80
2019-05-26T13:46:51.387Z,2.73
2019-05-26T13:48:33.770Z,2.17
2019-05-26T13:50:08.871Z,2.20
2019-05-26T13:51:44.083Z,1.93
2019-05-26T13:53:26.306Z,1.90
2019-05-26T13:55:03.244Z,2.00
2019-05-26T13:56:38.223Z,1.67
2019-05-26T13:58:13.448Z,2.20
2019-05-26T13:59:48.363Z,2.20
2019-05-26T14:01:32.748Z,3.00
2019-05-26T14:03:13.159Z,1.90
2019-05-26T14:04:48.182Z,2.80
2019-05-26T14:06:23.406Z,1.97
2019-05-26T14:07:58.050Z,1.90
2019-05-26T14:09:34.959Z,2.40
2019-05-26T14:11:21.787Z,2.20
2019-05-26T14:12:57.074Z,2.03
2019-05-26T14:14:31.799Z,1.80
2019-05-26T14:16:18.547Z,2.10
2019-05-26T14:17:59.897Z,1.90
2019-05-26T14:19:35.780Z,1.70
2019-05-26T14:21:10.471Z,1.90
2019-05-26T14:22:46.265Z,2.00
2019-05-26T14:24:20.941Z,2.00
2019-05-26T14:26:05.077Z,2.23
2019-05-26T14:27:40.300Z,2.00
2019-05-26T14:29:15.417Z,2.40
2019-05-26T14:30:54.169Z,2.07
2019-05-26T14:32:31.461Z,1.70
2019-05-26T14:34:06.757Z,1.57
2019-05-26T14:35:41.399Z,2.70
2019-05-26T14:37:16.750Z,2.30
2019-05-26T14:38:55.439Z,2.13
2019-05-26T14:40:30.655Z,2.00
2019-05-26T14:42:05.420Z,2.20
2019-05-26T14:43:40.630Z,1.83
2019-05-26T14:45:15.567Z,1.80
2019-05-26T14:46:53.706Z,1.57
2019-05-26T14:48:28.348Z,1.70
2019-05-26T14:50:03.766Z,1.87
2019-05-26T14:51:40.092Z,1.50
2019-05-26T14:53:15.536Z,1.80
2019-05-26T14:54:53.408Z,2.03
2019-05-26T14:56:28.645Z,1.50
2019-05-26T14:58:15.233Z,1.20
2019-05-26T14:59:51.906Z,1.80
2019-05-26T15:01:27.116Z,1.37
2019-05-26T15:03:01.744Z,1.50
2019-05-26T15:04:39.896Z,1.80
2019-05-26T15:06:14.764Z,1.40
2019-05-26T15:07:54.134Z,1.70
2019-05-26T15:09:33.715Z,1.73
2019-05-26T15:11:08.936Z,1.80
2019-05-26T15:12:43.676Z,1.50
2019-05-26T15:14:19.882Z,1.50
2019-05-26T15:16:08.771Z,1.50
2019-05-26T15:17:36.239Z,1.53
2019-05-26T15:19:11.440Z,1.30
2019-05-26T15:20:46.163Z,2.80
2019-05-26T15:22:30.858Z,1.33
2019-05-26T15:24:03.197Z,1.40
2019-05-26T15:25:38.407Z,2.40
2019-05-26T15:27:13.074Z,1.87
2019-05-26T15:28:48.280Z,2.10
2019-05-26T15:30:23.153Z,1.60
2019-05-26T15:31:58.379Z,1.77
2019-05-26T15:33:35.760Z,1.50
2019-05-26T15:35:12.117Z,1.50
2019-05-26T15:36:46.766Z,1.53
2019-05-26T15:38:21.987Z,1.90
2019-05-26T15:39:56.608Z,1.83
2019-05-26T15:41:34.925Z,1.80
2019-05-26T15:43:09.694Z,3.80
2019-05-26T15:44:50.099Z,3.03
2019-05-26T15:46:30.644Z,2.10
2019-05-26T15:48:05.547Z,2.50
2019-05-26T15:49:40.779Z,1.73
2019-05-26T15:51:26.826Z,1.70
2019-05-26T15:53:01.446Z,1.67
2019-05-26T15:54:36.678Z,1.70
2019-05-26T15:56:11.321Z,1.63
2019-05-26T15:57:46.562Z,1.70
2019-05-26T15:59:32.000Z,1.63
2019-05-26T16:01:10.488Z,1.60
2019-05-26T16:02:46.806Z,1.70
2019-05-26T16:04:22.284Z,1.90
2019-05-26T16:05:56.937Z,1.60
2019-05-26T16:07:33.769Z,2.40
2019-05-26T16:09:16.808Z,2.40
2019-05-26T16:10:52.083Z,1.60
2019-05-26T16:12:26.750Z,1.50
2019-05-26T16:14:04.671Z,2.20
2019-05-26T16:15:40.052Z,2.00
2019-05-26T16:17:18.779Z,1.90
2019-05-26T16:18:54.887Z,1.57
2019-05-26T16:20:31.981Z,1.67
2019-05-26T16:22:10.165Z,1.60
2019-05-26T16:23:45.797Z,1.50
2019-05-26T16:25:22.577Z,1.97
2019-05-26T16:27:16.194Z,1.50
2019-05-26T16:28:42.184Z,1.80
2019-05-26T16:30:17.927Z,1.67
2019-05-26T16:31:53.042Z,1.70
2019-05-26T16:33:30.123Z,2.00
2019-05-26T16:35:06.356Z,1.43
2019-05-26T16:36:41.793Z,2.00
2019-05-26T16:38:16.754Z,1.70
2019-05-26T16:39:55.675Z,1.77
2019-05-26T16:41:31.397Z,1.97
2019-05-26T16:43:06.854Z,2.00
2019-05-26T16:44:41.964Z,1.73
2019-05-26T16:46:17.486Z,1.90
2019-05-26T16:47:53.506Z,1.77
2019-05-26T16:49:28.997Z,1.60
2019-05-26T16:51:03.975Z,1.87
2019-05-26T16:52:41.263Z,1.70
2019-05-26T16:54:18.366Z,1.93
2019-05-26T16:55:58.145Z,1.60
2019-05-26T16:57:32.922Z,1.60
2019-05-26T16:59:09.206Z,1.83
2019-05-26T17:00:44.242Z,1.70
2019-05-26T17:02:19.911Z,1.50
2019-05-26T17:04:03.525Z,2.00
2019-05-26T17:05:40.004Z,2.03
2019-05-26T17:07:15.205Z,1.70
2019-05-26T17:08:50.761Z,1.60
2019-05-26T17:10:25.635Z,1.50
2019-05-26T17:12:01.057Z,1.47
2019-05-26T17:13:36.075Z,1.30
2019-05-26T17:15:13.288Z,1.97
2019-05-26T17:16:49.851Z,1.50
2019-05-26T17:20:21.624Z,1.43
2019-05-26T17:21:57.121Z,1.80
2019-05-26T17:23:32.862Z,1.63
2019-05-26T17:25:11.144Z,1.60
2019-05-26T17:26:45.839Z,1.63
2019-05-26T17:28:21.066Z,1.80
2019-05-26T17:29:55.699Z,1.87
2019-05-26T17:31:31.419Z,2.23
2019-05-26T17:33:07.462Z,1.73
2019-05-26T17:34:42.844Z,2.17
2019-05-26T17:36:26.600Z,2.13
2019-05-26T17:38:01.928Z,1.97
2019-05-26T17:39:37.841Z,2.00
2019-05-26T17:41:13.296Z,1.90
2019-05-26T17:42:49.546Z,2.13
2019-05-26T17:44:24.988Z,2.17
2019-05-26T17:45:59.739Z,2.43
2019-05-26T17:47:39.011Z,2.43
2019-05-26T17:49:13.939Z,2.33
2019-05-26T17:50:49.199Z,2.07
2019-05-26T17:52:26.433Z,2.30
2019-05-26T17:54:01.640Z,2.13
2019-05-26T17:55:36.285Z,2.10
2019-05-26T17:57:11.515Z,1.80
2019-05-26T17:58:46.162Z,2.20
2019-05-26T18:00:21.463Z,2.20
2019-05-26T18:01:56.654Z,2.60
2019-05-26T18:03:31.935Z,2.30
2019-05-26T18:05:06.781Z,2.33
2019-05-26T18:06:43.072Z,2.00
2019-05-26T18:08:17.735Z,2.33
2019-05-26T18:09:52.949Z,2.10
2019-05-26T18:11:30.826Z,2.83
2019-05-26T18:13:08.120Z,2.67
2019-05-26T18:14:46.129Z,2.50
2019-05-26T18:16:20.803Z,2.60
2019-05-26T18:17:56.054Z,2.37
2019-05-26T18:19:30.714Z,2.13
2019-05-26T18:21:06.060Z,2.53
2019-05-26T18:22:40.763Z,2.87
2019-05-26T18:24:16.078Z,2.77
2019-05-26T18:25:50.783Z,2.33
2019-05-26T18:27:25.993Z,2.50
2019-05-26T18:29:00.651Z,1.87
2019-05-26T18:32:28.549Z,2.40
2019-05-26T18:34:03.863Z,2.17
2019-05-26T18:35:38.590Z,2.53
2019-05-26T18:37:13.858Z,2.50
2019-05-26T18:38:48.759Z,1.97
2019-05-26T18:40:23.994Z,2.40
2019-05-26T18:41:58.767Z,3.00
2019-05-26T18:43:33.933Z,2.63
2019-05-26T18:45:09.255Z,2.43
2019-05-26T18:47:04.866Z,2.50
2019-05-26T18:48:40.100Z,2.30
2019-05-26T18:50:17.886Z,2.80
2019-05-26T18:51:53.232Z,2.67
2019-05-26T18:53:29.812Z,2.33
2019-05-26T18:55:05.249Z,2.23
2019-05-26T18:56:39.884Z,2.27
2019-05-26T18:58:16.089Z,2.40
2019-05-26T18:59:50.712Z,2.20
2019-05-26T19:01:26.010Z,2.50
2019-05-26T19:03:00.705Z,2.40
2019-05-26T19:04:35.944Z,2.40
2019-05-26T19:06:10.681Z,2.63
2019-05-26T19:07:45.917Z,2.90
2019-05-26T19:09:20.808Z,2.30
2019-05-26T19:10:56.093Z,2.23
2019-05-26T19:12:30.832Z,2.50
2019-05-26T19:14:06.505Z,2.30
2019-05-26T19:15:41.221Z,2.30
2019-05-26T19:17:16.608Z,2.53
2019-05-26T19:18:51.284Z,2.30
2019-05-26T19:20:26.518Z,2.40
2019-05-26T19:22:01.173Z,2.40
2019-05-26T19:23:37.469Z,2.20
2019-05-26T19:25:13.206Z,2.23
2019-05-26T19:26:48.437Z,2.60
2019-05-26T19:28:23.690Z,2.40
2019-05-26T19:29:58.960Z,2.47
2019-05-26T19:31:34.611Z,5.07
2019-05-26T19:33:09.835Z,2.90
2019-05-26T19:34:44.473Z,2.70
2019-05-26T19:36:19.799Z,2.33
2019-05-26T19:37:54.510Z,2.70
2019-05-26T19:39:30.055Z,2.00
2019-05-26T19:41:04.912Z,2.73
2019-05-26T19:42:40.241Z,2.23
2019-05-26T19:44:14.925Z,2.60
2019-05-26T19:45:50.159Z,2.47
2019-05-26T19:47:24.897Z,2.60
2019-05-26T19:49:00.167Z,2.30
2019-05-26T19:50:35.118Z,2.47
2019-05-26T19:52:10.444Z,2.30
2019-05-26T19:53:45.074Z,2.63
2019-05-26T19:55:20.388Z,2.67
2019-05-26T19:56:55.231Z,2.60
2019-05-26T19:58:30.476Z,2.60
2019-05-26T20:00:07.695Z,2.73
2019-05-26T20:01:42.983Z,2.63
2019-05-26T20:03:17.658Z,2.73
2019-05-26T20:04:53.261Z,2.60
2019-05-26T20:06:27.921Z,2.60
2019-05-26T20:08:03.330Z,2.77
2019-05-26T20:09:38.015Z,2.30
2019-05-26T20:11:13.278Z,2.70
2019-05-26T20:12:47.910Z,2.47
2019-05-26T20:14:26.113Z,2.33
2019-05-26T20:16:00.733Z,2.30
2019-05-26T20:17:44.243Z,2.47
2019-05-26T20:19:18.894Z,3.07
2019-05-26T20:20:54.229Z,2.80
2019-05-26T20:22:28.959Z,2.80
2019-05-26T20:24:04.341Z,2.40
2019-05-26T20:25:39.002Z,2.27
2019-05-26T20:27:14.229Z,2.87
2019-05-26T20:28:49.013Z,2.47
2019-05-26T20:30:24.696Z,2.37
2019-05-26T20:31:59.376Z,2.37
2019-05-26T20:33:35.689Z,2.23
2019-05-26T20:35:10.430Z,2.90
2019-05-26T20:36:45.677Z,2.47
2019-05-26T20:38:20.286Z,2.50
2019-05-26T20:39:55.560Z,2.10
2019-05-26T20:41:30.232Z,2.57
2019-05-26T20:43:05.625Z,2.67
2019-05-26T20:44:40.296Z,2.43
2019-05-26T20:46:15.682Z,2.37
2019-05-26T20:47:50.445Z,2.63
2019-05-26T20:49:25.708Z,2.60
2019-05-26T20:51:00.388Z,2.63
2019-05-26T20:52:35.717Z,2.47
2019-05-26T20:54:10.388Z,2.40
2019-05-26T20:55:46.834Z,2.77
2019-05-26T20:57:21.576Z,2.90
2019-05-26T20:58:57.993Z,2.53
2019-05-26T21:00:32.717Z,2.53
2019-05-26T21:02:08.010Z,2.80
2019-05-26T21:03:42.703Z,2.60
2019-05-26T21:05:21.629Z,2.80
2019-05-26T21:06:58.719Z,2.87
2019-05-26T21:08:35.530Z,2.30
2019-05-26T21:10:21.351Z,2.57
2019-05-26T21:11:56.672Z,2.73
2019-05-26T21:13:31.444Z,2.60
2019-05-26T21:15:07.015Z,2.63
2019-05-26T21:16:42.706Z,3.00
2019-05-26T21:18:17.955Z,2.83
2019-05-26T21:19:52.654Z,2.53
2019-05-26T21:21:27.940Z,2.40
2019-05-26T21:23:02.734Z,2.87
2019-05-26T21:24:38.084Z,2.50
2019-05-26T21:26:12.757Z,2.63